TVF28HN LGSR-LFPO
Flight info
| Callsign | TVF28HN |
|---|---|
| Flight time | 3h 26m |
| Altitude | 32000 |
| Route | MADEX UL53 KOR UL613 XANIS DCT DIMIS DCT VAKSU DCT AMUGO DCT BAXON DCT CERVI DCT MOLUS DCT UNKIR DCT DJL |
| Aircraft | B738/M-SDFGHIJ1RWXY/LB1 |
Departure
| Time | 2026-04-30 14:55 |
|---|---|
| Airport | Santorini International Airport (LGSR) |
Arrival
| Time | 2026-04-30 18:22 |
|---|---|
| Airport | Paris-Orly Airport (LFPO) |
| Time | Latitude | Longitude | Altitude | Speed | Heading |
|---|---|---|---|---|---|
| 2026-04-30 13:55 | 36.40343 | 25.47384 | 89 ft | 0 kts | 249° |
| 2026-04-30 14:39 | 36.40349 | 25.47403 | 116 ft | 2 kts | 249° |
| 2026-04-30 14:39 | 36.40361 | 25.47428 | 86 ft | 4 kts | 201° |
| 2026-04-30 14:39 | 36.40376 | 25.47430 | 81 ft | 4 kts | 162° |
| 2026-04-30 14:40 | 36.40393 | 25.47423 | 89 ft | 0 kts | 159° |
| 2026-04-30 14:45 | 36.40392 | 25.47423 | 89 ft | 0 kts | 159° |
| 2026-04-30 14:45 | 36.40384 | 25.47427 | 89 ft | 2 kts | 159° |
| 2026-04-30 14:46 | 36.40364 | 25.47437 | 90 ft | 4 kts | 159° |
| 2026-04-30 14:46 | 36.40331 | 25.47452 | 89 ft | 6 kts | 158° |
| 2026-04-30 14:46 | 36.40288 | 25.47473 | 90 ft | 7 kts | 157° |
| 2026-04-30 14:46 | 36.40270 | 25.47529 | 90 ft | 8 kts | 73° |
| 2026-04-30 14:47 | 36.40251 | 25.47589 | 89 ft | 9 kts | 153° |
| 2026-04-30 14:47 | 36.40188 | 25.47621 | 89 ft | 11 kts | 159° |
| 2026-04-30 14:47 | 36.40115 | 25.47655 | 87 ft | 12 kts | 159° |
| 2026-04-30 14:47 | 36.40033 | 25.47693 | 87 ft | 13 kts | 159° |
| 2026-04-30 14:48 | 36.39944 | 25.47736 | 85 ft | 14 kts | 159° |
| 2026-04-30 14:48 | 36.39858 | 25.47777 | 87 ft | 13 kts | 159° |
| 2026-04-30 14:48 | 36.39775 | 25.47817 | 83 ft | 13 kts | 159° |
| 2026-04-30 14:48 | 36.39693 | 25.47855 | 79 ft | 12 kts | 159° |
| 2026-04-30 14:49 | 36.39614 | 25.47893 | 73 ft | 12 kts | 159° |
| 2026-04-30 14:49 | 36.39537 | 25.47930 | 72 ft | 12 kts | 159° |
| 2026-04-30 14:49 | 36.39460 | 25.47965 | 70 ft | 12 kts | 159° |
| 2026-04-30 14:49 | 36.39380 | 25.48002 | 65 ft | 13 kts | 160° |
| 2026-04-30 14:50 | 36.39222 | 25.48077 | 62 ft | 12 kts | 159° |
| 2026-04-30 14:50 | 36.39140 | 25.48115 | 59 ft | 13 kts | 159° |
| 2026-04-30 14:51 | 36.39007 | 25.48222 | 53 ft | 6 kts | 86° |
| 2026-04-30 14:51 | 36.39008 | 25.48227 | 54 ft | 0 kts | 76° |
| 2026-04-30 14:54 | 36.39020 | 25.48272 | 51 ft | 7 kts | 73° |
| 2026-04-30 14:54 | 36.39151 | 25.48277 | 56 ft | 45 kts | 339° |
| 2026-04-30 14:55 | 36.40694 | 25.47566 | 219 ft | 174 kts | 342° |
| 2026-04-30 14:55 | 36.41864 | 25.47058 | 1013 ft | 181 kts | 339° |
| 2026-04-30 14:55 | 36.44410 | 25.46119 | 2561 ft | 200 kts | 343° |
| 2026-04-30 14:56 | 36.47298 | 25.45288 | 3319 ft | 229 kts | 343° |
| 2026-04-30 14:56 | 36.50627 | 25.44317 | 3940 ft | 264 kts | 345° |
| 2026-04-30 14:57 | 36.52475 | 25.43803 | 4456 ft | 277 kts | 346° |
| 2026-04-30 14:57 | 36.56254 | 25.42724 | 6113 ft | 277 kts | 344° |
| 2026-04-30 14:58 | 36.59990 | 25.41549 | 7732 ft | 278 kts | 343° |
| 2026-04-30 14:58 | 36.61866 | 25.40935 | 8489 ft | 280 kts | 342° |
| 2026-04-30 14:58 | 36.65149 | 25.38593 | 10002 ft | 276 kts | 311° |
| 2026-04-30 14:59 | 36.67895 | 25.34885 | 10631 ft | 313 kts | 311° |
| 2026-04-30 15:00 | 36.72619 | 25.28560 | 11890 ft | 339 kts | 312° |
| 2026-04-30 15:00 | 36.75909 | 25.24230 | 11980 ft | 344 kts | 312° |
| 2026-04-30 15:01 | 36.79173 | 25.19954 | 11990 ft | 342 kts | 312° |
| 2026-04-30 15:01 | 36.80836 | 25.17778 | 11995 ft | 342 kts | 312° |
| 2026-04-30 15:01 | 36.84101 | 25.13504 | 11993 ft | 343 kts | 311° |
| 2026-04-30 15:02 | 36.85768 | 25.11320 | 11994 ft | 343 kts | 311° |
| 2026-04-30 15:02 | 36.87392 | 25.09192 | 11994 ft | 343 kts | 311° |
| 2026-04-30 15:03 | 36.92381 | 25.02644 | 13132 ft | 349 kts | 311° |
| 2026-04-30 15:03 | 36.95729 | 24.98244 | 14521 ft | 351 kts | 311° |
| 2026-04-30 15:04 | 36.99133 | 24.93763 | 15632 ft | 359 kts | 311° |
| 2026-04-30 15:04 | 37.04367 | 24.86863 | 17310 ft | 370 kts | 312° |
| 2026-04-30 15:05 | 37.09747 | 24.79753 | 18869 ft | 379 kts | 312° |
| 2026-04-30 15:06 | 37.13394 | 24.74927 | 19902 ft | 383 kts | 311° |
| 2026-04-30 15:06 | 37.17081 | 24.70038 | 20851 ft | 388 kts | 311° |
| 2026-04-30 15:07 | 37.20813 | 24.65082 | 21780 ft | 393 kts | 311° |
| 2026-04-30 15:07 | 37.24593 | 24.60056 | 22679 ft | 398 kts | 311° |
| 2026-04-30 15:08 | 37.28417 | 24.54963 | 23549 ft | 403 kts | 311° |
| 2026-04-30 15:08 | 37.34222 | 24.47216 | 24688 ft | 408 kts | 311° |
| 2026-04-30 15:09 | 37.38121 | 24.42001 | 25396 ft | 411 kts | 311° |
| 2026-04-30 15:09 | 37.42049 | 24.36739 | 26113 ft | 414 kts | 311° |
| 2026-04-30 15:10 | 37.46011 | 24.31424 | 26746 ft | 418 kts | 311° |
| 2026-04-30 15:11 | 37.54023 | 24.20646 | 28022 ft | 424 kts | 311° |
| 2026-04-30 15:11 | 37.58033 | 24.15241 | 28923 ft | 420 kts | 310° |
| 2026-04-30 15:12 | 37.63968 | 24.07223 | 30180 ft | 415 kts | 310° |
| 2026-04-30 15:13 | 37.67889 | 24.01913 | 30890 ft | 412 kts | 310° |
| 2026-04-30 15:14 | 37.75702 | 23.91304 | 32005 ft | 413 kts | 310° |
| 2026-04-30 15:14 | 37.81605 | 23.83266 | 31991 ft | 414 kts | 310° |
| 2026-04-30 15:17 | 37.99198 | 23.59191 | 32735 ft | 418 kts | 309° |
| 2026-04-30 15:18 | 38.08967 | 23.45748 | 33948 ft | 415 kts | 309° |
| 2026-04-30 15:19 | 38.14808 | 23.37680 | 33980 ft | 412 kts | 309° |
| 2026-04-30 17:39 | 47.09089 | 5.34822 | 36105 ft | 411 kts | 318° |
| 2026-04-30 17:41 | 47.26110 | 5.11090 | 31749 ft | 428 kts | 317° |
| 2026-04-30 17:42 | 47.30301 | 5.04958 | 30947 ft | 422 kts | 315° |
| 2026-04-30 17:42 | 47.36289 | 4.95602 | 29738 ft | 415 kts | 314° |
| 2026-04-30 17:43 | 47.40239 | 4.89472 | 28937 ft | 409 kts | 314° |
| 2026-04-30 17:44 | 47.46065 | 4.80454 | 27798 ft | 400 kts | 314° |
| 2026-04-30 17:44 | 47.51773 | 4.71589 | 26735 ft | 392 kts | 314° |
| 2026-04-30 17:46 | 47.60984 | 4.57228 | 25180 ft | 379 kts | 314° |
| 2026-04-30 17:47 | 47.68282 | 4.45793 | 23942 ft | 380 kts | 314° |
| 2026-04-30 17:48 | 47.75469 | 4.34481 | 22598 ft | 372 kts | 314° |
| 2026-04-30 17:48 | 47.80733 | 4.26166 | 21698 ft | 365 kts | 314° |
| 2026-04-30 17:49 | 47.87590 | 4.15221 | 20517 ft | 359 kts | 308° |
| 2026-04-30 17:50 | 47.90129 | 4.02319 | 19471 ft | 356 kts | 281° |
| 2026-04-30 17:51 | 47.91640 | 3.91505 | 18601 ft | 354 kts | 282° |
| 2026-04-30 17:52 | 47.93182 | 3.80766 | 17659 ft | 351 kts | 282° |
| 2026-04-30 17:53 | 47.95660 | 3.63463 | 16236 ft | 333 kts | 282° |
| 2026-04-30 17:54 | 47.99799 | 3.51668 | 15179 ft | 329 kts | 316° |
| 2026-04-30 17:55 | 48.06301 | 3.41950 | 14101 ft | 332 kts | 316° |
| 2026-04-30 17:56 | 48.12667 | 3.32224 | 12960 ft | 320 kts | 315° |
| 2026-04-30 17:57 | 48.17247 | 3.25187 | 12189 ft | 313 kts | 314° |
| 2026-04-30 17:58 | 48.21790 | 3.18190 | 11423 ft | 310 kts | 315° |
| 2026-04-30 17:59 | 48.27676 | 3.09121 | 10431 ft | 297 kts | 314° |
| 2026-04-30 18:00 | 48.29349 | 2.97744 | 10145 ft | 297 kts | 265° |
| 2026-04-30 18:00 | 48.28999 | 2.88430 | 10124 ft | 296 kts | 265° |
| 2026-04-30 18:01 | 48.28789 | 2.82294 | 10122 ft | 293 kts | 266° |
| 2026-04-30 18:02 | 48.28486 | 2.73121 | 10122 ft | 294 kts | 266° |
| 2026-04-30 18:02 | 48.28182 | 2.63891 | 10124 ft | 296 kts | 266° |
| 2026-04-30 18:03 | 48.27873 | 2.54610 | 10117 ft | 297 kts | 265° |
| 2026-04-30 18:04 | 48.27553 | 2.45295 | 10122 ft | 298 kts | 265° |
| 2026-04-30 18:05 | 48.27119 | 2.32883 | 10111 ft | 297 kts | 266° |
| 2026-04-30 18:06 | 48.26673 | 2.20524 | 10110 ft | 297 kts | 264° |
| 2026-04-30 18:07 | 48.26212 | 2.08167 | 10110 ft | 297 kts | 264° |
| 2026-04-30 18:08 | 48.25858 | 1.98886 | 10115 ft | 297 kts | 264° |
| 2026-04-30 18:09 | 48.25376 | 1.86547 | 10101 ft | 297 kts | 264° |
| 2026-04-30 18:10 | 48.24879 | 1.74161 | 10094 ft | 297 kts | 265° |
| 2026-04-30 18:11 | 48.28178 | 1.64092 | 10113 ft | 300 kts | 347° |
| 2026-04-30 18:11 | 48.33818 | 1.66854 | 10119 ft | 294 kts | 37° |
| 2026-04-30 18:12 | 48.38910 | 1.72169 | 9769 ft | 304 kts | 36° |
| 2026-04-30 18:13 | 48.42411 | 1.75762 | 9052 ft | 304 kts | 36° |
| 2026-04-30 18:13 | 48.47034 | 1.80498 | 8124 ft | 301 kts | 36° |
| 2026-04-30 18:14 | 48.51013 | 1.84586 | 7344 ft | 300 kts | 36° |
| 2026-04-30 18:15 | 48.56177 | 1.89901 | 6306 ft | 295 kts | 35° |
| 2026-04-30 18:15 | 48.59618 | 1.96885 | 5009 ft | 281 kts | 64° |
| 2026-04-30 18:16 | 48.61457 | 2.02063 | 4217 ft | 268 kts | 64° |
| 2026-04-30 18:16 | 48.63134 | 2.06753 | 3986 ft | 237 kts | 65° |
| 2026-04-30 18:17 | 48.63899 | 2.08895 | 3969 ft | 225 kts | 65° |
| 2026-04-30 18:17 | 48.64625 | 2.10883 | 3974 ft | 208 kts | 64° |
| 2026-04-30 18:17 | 48.65985 | 2.14535 | 3312 ft | 193 kts | 68° |
| 2026-04-30 18:18 | 48.66569 | 2.16277 | 2949 ft | 182 kts | 68° |
| 2026-04-30 18:18 | 48.67103 | 2.17909 | 2744 ft | 165 kts | 69° |
| 2026-04-30 18:18 | 48.67623 | 2.19455 | 2401 ft | 160 kts | 66° |
| 2026-04-30 18:18 | 48.68130 | 2.20865 | 2169 ft | 145 kts | 66° |
| 2026-04-30 18:19 | 48.68608 | 2.22144 | 1878 ft | 135 kts | 66° |
| 2026-04-30 18:19 | 48.69057 | 2.23361 | 1731 ft | 133 kts | 67° |
| 2026-04-30 18:19 | 48.69503 | 2.24617 | 1524 ft | 137 kts | 66° |
| 2026-04-30 18:19 | 48.69949 | 2.25883 | 1295 ft | 136 kts | 66° |
| 2026-04-30 18:20 | 48.70388 | 2.27124 | 1074 ft | 131 kts | 68° |
| 2026-04-30 18:20 | 48.70822 | 2.28353 | 853 ft | 137 kts | 63° |
| 2026-04-30 18:20 | 48.71269 | 2.29625 | 690 ft | 137 kts | 65° |
| 2026-04-30 18:20 | 48.71722 | 2.30897 | 511 ft | 136 kts | 64° |
| 2026-04-30 18:21 | 48.72168 | 2.32155 | 330 ft | 133 kts | 64° |
| 2026-04-30 18:21 | 48.72555 | 2.33277 | 301 ft | 106 kts | 64° |
| 2026-04-30 18:21 | 48.72837 | 2.34064 | 302 ft | 64 kts | 62° |
| 2026-04-30 18:21 | 48.72994 | 2.34588 | 302 ft | 50 kts | 80° |
| 2026-04-30 18:22 | 48.73031 | 2.34954 | 297 ft | 22 kts | 82° |
| 2026-04-30 18:22 | 48.72946 | 2.35306 | 301 ft | 11 kts | 158° |
| 2026-04-30 18:22 | 48.72871 | 2.35315 | 301 ft | 11 kts | 193° |
| 2026-04-30 18:23 | 48.72801 | 2.35283 | 299 ft | 10 kts | 198° |
| 2026-04-30 18:23 | 48.72731 | 2.35255 | 298 ft | 10 kts | 184° |
| 2026-04-30 18:23 | 48.72663 | 2.35272 | 299 ft | 10 kts | 165° |
| 2026-04-30 18:23 | 48.72584 | 2.35305 | 300 ft | 13 kts | 164° |
| 2026-04-30 18:24 | 48.72420 | 2.35451 | 303 ft | 15 kts | 72° |
| 2026-04-30 18:24 | 48.72451 | 2.35616 | 301 ft | 17 kts | 75° |
| 2026-04-30 18:24 | 48.72481 | 2.35802 | 299 ft | 19 kts | 91° |
| 2026-04-30 18:25 | 48.72470 | 2.36007 | 298 ft | 20 kts | 84° |
| 2026-04-30 18:25 | 48.72511 | 2.36246 | 300 ft | 3 kts | 69° |
| 2026-04-30 18:25 | 48.72537 | 2.36261 | 300 ft | 5 kts | 359° |
| 2026-04-30 18:26 | 48.72578 | 2.36251 | 301 ft | 1 kts | 350° |
| 2026-04-30 18:26 | 48.72587 | 2.36249 | 299 ft | 1 kts | 349° |
| 2026-04-30 18:26 | 48.72588 | 2.36249 | 299 ft | 0 kts | 349° |